sensor_id;sensor_type;location;lat;lon;timestamp;temperature;humidity
69546;SHT31;56766;52.260;20.746;2022-08-21T00:01:24;21.65;72.69
69546;SHT31;56766;52.260;20.746;2022-08-21T00:03:52;21.57;72.78
69546;SHT31;56766;52.260;20.746;2022-08-21T00:06:19;21.48;72.99
69546;SHT31;56766;52.260;20.746;2022-08-21T00:08:46;21.41;73.10
69546;SHT31;56766;52.260;20.746;2022-08-21T00:11:13;21.40;73.17
69546;SHT31;56766;52.260;20.746;2022-08-21T00:13:40;21.36;73.22
69546;SHT31;56766;52.260;20.746;2022-08-21T00:16:08;21.30;73.39
69546;SHT31;56766;52.260;20.746;2022-08-21T00:18:35;21.24;73.28
69546;SHT31;56766;52.260;20.746;2022-08-21T00:21:02;21.15;73.59
69546;SHT31;56766;52.260;20.746;2022-08-21T00:23:30;21.06;73.86
69546;SHT31;56766;52.260;20.746;2022-08-21T00:25:57;21.02;73.97
69546;SHT31;56766;52.260;20.746;2022-08-21T00:28:25;20.99;74.14
69546;SHT31;56766;52.260;20.746;2022-08-21T00:30:51;20.95;74.23
69546;SHT31;56766;52.260;20.746;2022-08-21T00:33:18;20.88;74.55
69546;SHT31;56766;52.260;20.746;2022-08-21T00:35:45;20.75;74.89
69546;SHT31;56766;52.260;20.746;2022-08-21T00:38:12;20.63;75.20
69546;SHT31;56766;52.260;20.746;2022-08-21T00:40:51;20.54;75.37
69546;SHT31;56766;52.260;20.746;2022-08-21T00:43:23;20.51;75.53
69546;SHT31;56766;52.260;20.746;2022-08-21T00:45:52;20.51;75.42
69546;SHT31;56766;52.260;20.746;2022-08-21T00:48:20;20.50;75.56
69546;SHT31;56766;52.260;20.746;2022-08-21T00:50:57;20.42;75.61
69546;SHT31;56766;52.260;20.746;2022-08-21T00:53:39;20.39;75.65
69546;SHT31;56766;52.260;20.746;2022-08-21T00:56:09;20.37;75.71
69546;SHT31;56766;52.260;20.746;2022-08-21T00:58:42;20.38;75.69
69546;SHT31;56766;52.260;20.746;2022-08-21T01:01:09;20.37;75.73
69546;SHT31;56766;52.260;20.746;2022-08-21T01:03:37;20.33;75.80
69546;SHT31;56766;52.260;20.746;2022-08-21T01:06:05;20.30;75.89
69546;SHT31;56766;52.260;20.746;2022-08-21T01:08:32;20.27;76.22
69546;SHT31;56766;52.260;20.746;2022-08-21T01:11:01;20.16;76.67
69546;SHT31;56766;52.260;20.746;2022-08-21T01:13:35;20.08;76.83
69546;SHT31;56766;52.260;20.746;2022-08-21T01:16:09;19.97;77.17
69546;SHT31;56766;52.260;20.746;2022-08-21T01:18:36;19.91;77.31
69546;SHT31;56766;52.260;20.746;2022-08-21T01:21:08;19.86;77.50
69546;SHT31;56766;52.260;20.746;2022-08-21T01:23:38;19.84;77.64
69546;SHT31;56766;52.260;20.746;2022-08-21T01:26:14;19.85;77.50
69546;SHT31;56766;52.260;20.746;2022-08-21T01:28:58;19.86;77.62
69546;SHT31;56766;52.260;20.746;2022-08-21T01:31:46;19.83;77.82
69546;SHT31;56766;52.260;20.746;2022-08-21T01:34:13;19.81;77.91
69546;SHT31;56766;52.260;20.746;2022-08-21T01:36:43;19.83;77.84
69546;SHT31;56766;52.260;20.746;2022-08-21T01:39:12;19.88;77.72
69546;SHT31;56766;52.260;20.746;2022-08-21T01:41:38;19.92;77.57
69546;SHT31;56766;52.260;20.746;2022-08-21T01:44:05;19.95;77.48
69546;SHT31;56766;52.260;20.746;2022-08-21T01:46:32;19.98;77.45
69546;SHT31;56766;52.260;20.746;2022-08-21T01:48:59;20.00;77.41
69546;SHT31;56766;52.260;20.746;2022-08-21T01:51:26;19.97;77.50
69546;SHT31;56766;52.260;20.746;2022-08-21T01:53:52;19.92;77.62
69546;SHT31;56766;52.260;20.746;2022-08-21T01:56:19;19.86;77.81
69546;SHT31;56766;52.260;20.746;2022-08-21T01:58:48;19.80;78.01
69546;SHT31;56766;52.260;20.746;2022-08-21T02:01:15;19.77;78.10
69546;SHT31;56766;52.260;20.746;2022-08-21T02:03:42;19.75;78.07
69546;SHT31;56766;52.260;20.746;2022-08-21T02:06:14;19.73;77.91
69546;SHT31;56766;52.260;20.746;2022-08-21T02:08:44;19.69;77.85
69546;SHT31;56766;52.260;20.746;2022-08-21T02:11:12;19.65;77.90
69546;SHT31;56766;52.260;20.746;2022-08-21T02:13:40;19.64;77.91
69546;SHT31;56766;52.260;20.746;2022-08-21T02:16:06;19.65;77.90
69546;SHT31;56766;52.260;20.746;2022-08-21T02:18:35;19.66;77.92
69546;SHT31;56766;52.260;20.746;2022-08-21T02:21:04;19.64;78.03
69546;SHT31;56766;52.260;20.746;2022-08-21T02:23:34;19.66;78.07
69546;SHT31;56766;52.260;20.746;2022-08-21T02:26:04;19.67;77.99
69546;SHT31;56766;52.260;20.746;2022-08-21T02:28:34;19.70;77.99
69546;SHT31;56766;52.260;20.746;2022-08-21T02:31:04;19.71;78.00
69546;SHT31;56766;52.260;20.746;2022-08-21T02:33:31;19.69;78.08
69546;SHT31;56766;52.260;20.746;2022-08-21T02:36:00;19.66;78.12
69546;SHT31;56766;52.260;20.746;2022-08-21T02:38:32;19.63;78.11
69546;SHT31;56766;52.260;20.746;2022-08-21T02:41:01;19.58;78.19
69546;SHT31;56766;52.260;20.746;2022-08-21T02:43:28;19.52;78.30
69546;SHT31;56766;52.260;20.746;2022-08-21T02:45:56;19.50;78.47
69546;SHT31;56766;52.260;20.746;2022-08-21T02:48:27;19.46;78.60
69546;SHT31;56766;52.260;20.746;2022-08-21T02:51:04;19.44;78.63
69546;SHT31;56766;52.260;20.746;2022-08-21T02:53:37;19.41;78.61
69546;SHT31;56766;52.260;20.746;2022-08-21T02:56:07;19.39;78.71
69546;SHT31;56766;52.260;20.746;2022-08-21T02:58:40;19.33;78.82
69546;SHT31;56766;52.260;20.746;2022-08-21T03:01:10;19.25;79.03
69546;SHT31;56766;52.260;20.746;2022-08-21T03:03:41;19.17;79.23
69546;SHT31;56766;52.260;20.746;2022-08-21T03:06:13;19.15;79.31
69546;SHT31;56766;52.260;20.746;2022-08-21T03:08:43;19.14;79.27
69546;SHT31;56766;52.260;20.746;2022-08-21T03:11:13;19.17;79.17
69546;SHT31;56766;52.260;20.746;2022-08-21T03:13:41;19.19;79.10
69546;SHT31;56766;52.260;20.746;2022-08-21T03:16:09;19.21;79.05
69546;SHT31;56766;52.260;20.746;2022-08-21T03:18:37;19.17;79.09
69546;SHT31;56766;52.260;20.746;2022-08-21T03:21:04;19.10;79.29
69546;SHT31;56766;52.260;20.746;2022-08-21T03:23:31;19.02;79.78
69546;SHT31;56766;52.260;20.746;2022-08-21T03:25:58;18.97;79.83
69546;SHT31;56766;52.260;20.746;2022-08-21T03:28:25;18.98;79.74
69546;SHT31;56766;52.260;20.746;2022-08-21T03:30:53;19.03;79.55
69546;SHT31;56766;52.260;20.746;2022-08-21T03:33:21;19.10;79.33
69546;SHT31;56766;52.260;20.746;2022-08-21T03:35:57;19.12;79.32
69546;SHT31;56766;52.260;20.746;2022-08-21T03:38:28;19.10;79.48
69546;SHT31;56766;52.260;20.746;2022-08-21T03:40:58;19.07;79.51
69546;SHT31;56766;52.260;20.746;2022-08-21T03:43:27;19.02;79.63
69546;SHT31;56766;52.260;20.746;2022-08-21T03:45:55;19.05;79.61
69546;SHT31;56766;52.260;20.746;2022-08-21T03:48:21;19.06;79.58
69546;SHT31;56766;52.260;20.746;2022-08-21T03:50:52;19.09;79.50
69546;SHT31;56766;52.260;20.746;2022-08-21T03:53:20;19.11;79.50
69546;SHT31;56766;52.260;20.746;2022-08-21T03:55:50;19.14;79.54
69546;SHT31;56766;52.260;20.746;2022-08-21T03:58:23;19.14;79.60
69546;SHT31;56766;52.260;20.746;2022-08-21T04:00:54;19.19;79.57
69546;SHT31;56766;52.260;20.746;2022-08-21T04:03:24;19.24;79.44
69546;SHT31;56766;52.260;20.746;2022-08-21T04:05:51;19.30;79.36
69546;SHT31;56766;52.260;20.746;2022-08-21T04:08:18;19.38;79.27
69546;SHT31;56766;52.260;20.746;2022-08-21T04:10:50;19.45;79.21
69546;SHT31;56766;52.260;20.746;2022-08-21T04:13:18;19.50;79.19
69546;SHT31;56766;52.260;20.746;2022-08-21T04:15:46;19.59;79.10
69546;SHT31;56766;52.260;20.746;2022-08-21T04:18:14;19.70;79.05
69546;SHT31;56766;52.260;20.746;2022-08-21T04:20:43;19.78;78.90
69546;SHT31;56766;52.260;20.746;2022-08-21T04:23:12;19.92;78.72
69546;SHT31;56766;52.260;20.746;2022-08-21T04:25:39;20.08;78.46
69546;SHT31;56766;52.260;20.746;2022-08-21T04:28:05;20.22;78.20
69546;SHT31;56766;52.260;20.746;2022-08-21T04:30:32;20.33;78.12
69546;SHT31;56766;52.260;20.746;2022-08-21T04:32:59;20.47;77.92
69546;SHT31;56766;52.260;20.746;2022-08-21T04:35:27;20.61;77.69
69546;SHT31;56766;52.260;20.746;2022-08-21T04:37:55;20.70;77.59
69546;SHT31;56766;52.260;20.746;2022-08-21T04:40:24;20.81;77.31
69546;SHT31;56766;52.260;20.746;2022-08-21T04:42:56;20.94;77.15
69546;SHT31;56766;52.260;20.746;2022-08-21T04:45:31;21.05;76.93
69546;SHT31;56766;52.260;20.746;2022-08-21T04:48:04;21.21;76.76
69546;SHT31;56766;52.260;20.746;2022-08-21T04:53:18;21.50;76.34
69546;SHT31;56766;52.260;20.746;2022-08-21T04:55:47;21.62;75.91
69546;SHT31;56766;52.260;20.746;2022-08-21T04:58:17;21.72;75.73
69546;SHT31;56766;52.260;20.746;2022-08-21T05:00:47;21.80;75.55
69546;SHT31;56766;52.260;20.746;2022-08-21T05:03:16;21.89;75.18
69546;SHT31;56766;52.260;20.746;2022-08-21T05:05:44;21.93;75.17
69546;SHT31;56766;52.260;20.746;2022-08-21T05:08:15;21.98;75.04
69546;SHT31;56766;52.260;20.746;2022-08-21T05:10:45;22.05;74.99
69546;SHT31;56766;52.260;20.746;2022-08-21T05:13:13;22.10;74.83
69546;SHT31;56766;52.260;20.746;2022-08-21T05:15:41;22.13;74.96
69546;SHT31;56766;52.260;20.746;2022-08-21T05:18:08;22.26;74.74
69546;SHT31;56766;52.260;20.746;2022-08-21T05:20:35;22.37;74.38
69546;SHT31;56766;52.260;20.746;2022-08-21T05:23:11;22.47;74.08
69546;SHT31;56766;52.260;20.746;2022-08-21T05:25:40;22.55;74.13
69546;SHT31;56766;52.260;20.746;2022-08-21T05:28:07;22.59;73.74
69546;SHT31;56766;52.260;20.746;2022-08-21T05:30:35;22.66;73.58
69546;SHT31;56766;52.260;20.746;2022-08-21T05:33:04;22.69;73.00
69546;SHT31;56766;52.260;20.746;2022-08-21T05:35:33;22.72;73.13
69546;SHT31;56766;52.260;20.746;2022-08-21T05:38:00;22.74;72.88
69546;SHT31;56766;52.260;20.746;2022-08-21T05:40:28;22.74;72.68
69546;SHT31;56766;52.260;20.746;2022-08-21T05:42:55;22.73;72.79
69546;SHT31;56766;52.260;20.746;2022-08-21T05:45:28;22.76;72.88
69546;SHT31;56766;52.260;20.746;2022-08-21T05:47:57;22.78;72.55
69546;SHT31;56766;52.260;20.746;2022-08-21T05:50:24;22.79;72.55
69546;SHT31;56766;52.260;20.746;2022-08-21T05:52:50;22.84;72.44
69546;SHT31;56766;52.260;20.746;2022-08-21T05:55:17;22.94;72.36
69546;SHT31;56766;52.260;20.746;2022-08-21T05:57:44;23.07;72.00
69546;SHT31;56766;52.260;20.746;2022-08-21T06:00:11;23.16;71.64
69546;SHT31;56766;52.260;20.746;2022-08-21T06:02:39;23.31;71.52
69546;SHT31;56766;52.260;20.746;2022-08-21T06:05:07;23.46;70.70
69546;SHT31;56766;52.260;20.746;2022-08-21T06:07:34;23.60;70.73
69546;SHT31;56766;52.260;20.746;2022-08-21T06:10:02;23.77;70.83
69546;SHT31;56766;52.260;20.746;2022-08-21T06:12:29;23.85;70.03
69546;SHT31;56766;52.260;20.746;2022-08-21T06:14:55;23.81;69.93
69546;SHT31;56766;52.260;20.746;2022-08-21T06:17:22;23.86;69.91
69546;SHT31;56766;52.260;20.746;2022-08-21T06:19:53;23.96;70.15
69546;SHT31;56766;52.260;20.746;2022-08-21T06:22:21;24.10;69.73
69546;SHT31;56766;52.260;20.746;2022-08-21T06:24:48;24.22;69.48
69546;SHT31;56766;52.260;20.746;2022-08-21T06:27:15;24.33;69.33
69546;SHT31;56766;52.260;20.746;2022-08-21T06:29:43;24.50;69.31
69546;SHT31;56766;52.260;20.746;2022-08-21T06:32:12;24.62;69.01
69546;SHT31;56766;52.260;20.746;2022-08-21T06:34:41;24.69;68.36
69546;SHT31;56766;52.260;20.746;2022-08-21T06:37:08;24.80;68.47
69546;SHT31;56766;52.260;20.746;2022-08-21T06:39:35;24.90;67.81
69546;SHT31;56766;52.260;20.746;2022-08-21T06:42:03;24.92;68.00
69546;SHT31;56766;52.260;20.746;2022-08-21T06:44:30;24.99;67.26
69546;SHT31;56766;52.260;20.746;2022-08-21T06:46:58;25.03;66.87
69546;SHT31;56766;52.260;20.746;2022-08-21T06:49:24;25.15;67.00
69546;SHT31;56766;52.260;20.746;2022-08-21T06:51:51;25.22;66.24
69546;SHT31;56766;52.260;20.746;2022-08-21T06:54:18;25.27;66.21
69546;SHT31;56766;52.260;20.746;2022-08-21T06:56:44;25.32;65.59
69546;SHT31;56766;52.260;20.746;2022-08-21T06:59:11;25.25;65.47
69546;SHT31;56766;52.260;20.746;2022-08-21T07:01:38;25.26;66.25
69546;SHT31;56766;52.260;20.746;2022-08-21T07:04:05;25.35;65.91
69546;SHT31;56766;52.260;20.746;2022-08-21T07:06:32;25.40;65.91
69546;SHT31;56766;52.260;20.746;2022-08-21T07:08:58;25.51;64.95
69546;SHT31;56766;52.260;20.746;2022-08-21T07:11:27;25.52;64.71
69546;SHT31;56766;52.260;20.746;2022-08-21T07:13:54;25.56;64.90
69546;SHT31;56766;52.260;20.746;2022-08-21T07:16:23;25.60;64.83
69546;SHT31;56766;52.260;20.746;2022-08-21T07:18:50;25.69;65.23
69546;SHT31;56766;52.260;20.746;2022-08-21T07:21:17;25.80;64.83
69546;SHT31;56766;52.260;20.746;2022-08-21T07:23:47;25.81;63.73
69546;SHT31;56766;52.260;20.746;2022-08-21T07:26:18;25.82;63.59
69546;SHT31;56766;52.260;20.746;2022-08-21T07:28:48;25.92;63.89
69546;SHT31;56766;52.260;20.746;2022-08-21T07:31:19;26.02;64.24
69546;SHT31;56766;52.260;20.746;2022-08-21T07:33:49;26.19;64.25
69546;SHT31;56766;52.260;20.746;2022-08-21T07:36:16;26.35;63.93
69546;SHT31;56766;52.260;20.746;2022-08-21T07:38:43;26.45;63.31
69546;SHT31;56766;52.260;20.746;2022-08-21T07:41:23;26.45;62.56
69546;SHT31;56766;52.260;20.746;2022-08-21T07:43:52;26.38;61.86
69546;SHT31;56766;52.260;20.746;2022-08-21T07:46:19;26.40;61.86
69546;SHT31;56766;52.260;20.746;2022-08-21T07:48:47;26.41;61.84
69546;SHT31;56766;52.260;20.746;2022-08-21T07:51:15;26.47;61.99
69546;SHT31;56766;52.260;20.746;2022-08-21T07:53:51;26.55;61.52
69546;SHT31;56766;52.260;20.746;2022-08-21T07:56:20;26.69;62.18
69546;SHT31;56766;52.260;20.746;2022-08-21T07:58:47;26.79;61.09
69546;SHT31;56766;52.260;20.746;2022-08-21T08:01:14;26.82;60.02
69546;SHT31;56766;52.260;20.746;2022-08-21T08:03:41;26.87;60.18
69546;SHT31;56766;52.260;20.746;2022-08-21T08:06:08;26.94;60.24
69546;SHT31;56766;52.260;20.746;2022-08-21T08:08:39;27.04;60.36
69546;SHT31;56766;52.260;20.746;2022-08-21T08:11:09;27.17;60.28
69546;SHT31;56766;52.260;20.746;2022-08-21T08:13:46;27.29;60.12
69546;SHT31;56766;52.260;20.746;2022-08-21T08:16:15;27.34;59.83
69546;SHT31;56766;52.260;20.746;2022-08-21T08:18:43;27.38;60.00
69546;SHT31;56766;52.260;20.746;2022-08-21T08:21:13;27.47;59.71
69546;SHT31;56766;52.260;20.746;2022-08-21T08:23:41;27.56;59.32
69546;SHT31;56766;52.260;20.746;2022-08-21T08:26:11;27.68;59.20
69546;SHT31;56766;52.260;20.746;2022-08-21T08:28:38;27.83;58.78
69546;SHT31;56766;52.260;20.746;2022-08-21T08:31:04;27.93;58.58
69546;SHT31;56766;52.260;20.746;2022-08-21T08:33:31;28.03;58.44
69546;SHT31;56766;52.260;20.746;2022-08-21T08:35:59;28.16;57.84
69546;SHT31;56766;52.260;20.746;2022-08-21T08:38:25;28.16;57.10
69546;SHT31;56766;52.260;20.746;2022-08-21T08:41:06;28.17;57.30
69546;SHT31;56766;52.260;20.746;2022-08-21T08:43:53;28.20;57.26
69546;SHT31;56766;52.260;20.746;2022-08-21T08:46:34;28.39;57.53
69546;SHT31;56766;52.260;20.746;2022-08-21T08:49:11;28.57;57.71
69546;SHT31;56766;52.260;20.746;2022-08-21T08:51:52;28.79;57.23
69546;SHT31;56766;52.260;20.746;2022-08-21T08:54:45;28.91;55.38
69546;SHT31;56766;52.260;20.746;2022-08-21T08:57:20;29.06;56.10
69546;SHT31;56766;52.260;20.746;2022-08-21T08:59:56;29.20;56.11
69546;SHT31;56766;52.260;20.746;2022-08-21T09:02:26;29.26;54.77
69546;SHT31;56766;52.260;20.746;2022-08-21T09:04:56;29.25;54.46
69546;SHT31;56766;52.260;20.746;2022-08-21T09:07:43;29.13;55.03
69546;SHT31;56766;52.260;20.746;2022-08-21T09:10:46;29.24;54.21
69546;SHT31;56766;52.260;20.746;2022-08-21T09:14:00;29.39;54.29
69546;SHT31;56766;52.260;20.746;2022-08-21T09:16:55;29.64;54.42
69546;SHT31;56766;52.260;20.746;2022-08-21T09:23:47;30.08;52.25
69546;SHT31;56766;52.260;20.746;2022-08-21T09:26:29;30.19;52.34
69546;SHT31;56766;52.260;20.746;2022-08-21T09:29:02;30.16;52.03
69546;SHT31;56766;52.260;20.746;2022-08-21T09:31:34;29.88;51.52
69546;SHT31;56766;52.260;20.746;2022-08-21T09:34:11;29.59;52.71
69546;SHT31;56766;52.260;20.746;2022-08-21T09:36:49;29.57;52.77
69546;SHT31;56766;52.260;20.746;2022-08-21T09:39:26;29.86;52.83
69546;SHT31;56766;52.260;20.746;2022-08-21T09:42:03;30.35;52.43
69546;SHT31;56766;52.260;20.746;2022-08-21T09:44:35;30.69;51.53
69546;SHT31;56766;52.260;20.746;2022-08-21T09:47:11;30.93;50.67
69546;SHT31;56766;52.260;20.746;2022-08-21T09:49:43;31.11;50.88
69546;SHT31;56766;52.260;20.746;2022-08-21T09:52:20;31.30;49.60
69546;SHT31;56766;52.260;20.746;2022-08-21T09:54:54;31.42;50.37
69546;SHT31;56766;52.260;20.746;2022-08-21T09:57:26;31.65;49.29
69546;SHT31;56766;52.260;20.746;2022-08-21T10:00:19;31.70;47.72
69546;SHT31;56766;52.260;20.746;2022-08-21T10:02:49;31.52;48.01
69546;SHT31;56766;52.260;20.746;2022-08-21T10:05:20;31.43;48.26
69546;SHT31;56766;52.260;20.746;2022-08-21T10:07:52;31.51;48.44
69546;SHT31;56766;52.260;20.746;2022-08-21T10:10:23;31.72;48.74
69546;SHT31;56766;52.260;20.746;2022-08-21T10:13:23;31.89;47.84
69546;SHT31;56766;52.260;20.746;2022-08-21T10:16:29;31.63;46.99
69546;SHT31;56766;52.260;20.746;2022-08-21T10:24:58;31.60;47.65
69546;SHT31;56766;52.260;20.746;2022-08-21T10:31:02;32.04;46.34
69546;SHT31;56766;52.260;20.746;2022-08-21T10:49:25;31.88;46.11
69546;SHT31;56766;52.260;20.746;2022-08-21T10:55:17;31.60;46.50
69546;SHT31;56766;52.260;20.746;2022-08-21T11:00:29;31.33;47.48
69546;SHT31;56766;52.260;20.746;2022-08-21T11:03:12;31.43;48.07
69546;SHT31;56766;52.260;20.746;2022-08-21T11:05:53;31.60;46.78
69546;SHT31;56766;52.260;20.746;2022-08-21T11:08:33;31.34;46.70
69546;SHT31;56766;52.260;20.746;2022-08-21T11:11:15;30.96;47.42
69546;SHT31;56766;52.260;20.746;2022-08-21T11:13:55;30.64;47.66
69546;SHT31;56766;52.260;20.746;2022-08-21T11:19:12;30.08;49.18
69546;SHT31;56766;52.260;20.746;2022-08-21T11:27:51;29.89;49.74
69546;SHT31;56766;52.260;20.746;2022-08-21T11:30:32;29.81;49.99
69546;SHT31;56766;52.260;20.746;2022-08-21T11:36:35;29.59;50.56
69546;SHT31;56766;52.260;20.746;2022-08-21T11:45:35;29.52;51.26
69546;SHT31;56766;52.260;20.746;2022-08-21T11:51:18;29.77;50.02
69546;SHT31;56766;52.260;20.746;2022-08-21T11:54:08;30.23;50.53
69546;SHT31;56766;52.260;20.746;2022-08-21T11:57:39;30.60;49.84
69546;SHT31;56766;52.260;20.746;2022-08-21T11:59:59;30.92;49.67
69546;SHT31;56766;52.260;20.746;2022-08-21T12:02:38;31.23;48.19
69546;SHT31;56766;52.260;20.746;2022-08-21T12:05:41;31.35;46.59
69546;SHT31;56766;52.260;20.746;2022-08-21T12:13:32;31.64;45.10
69546;SHT31;56766;52.260;20.746;2022-08-21T12:16:12;31.20;45.40
69546;SHT31;56766;52.260;20.746;2022-08-21T12:19:09;30.75;45.89
69546;SHT31;56766;52.260;20.746;2022-08-21T12:21:58;30.29;46.50
69546;SHT31;56766;52.260;20.746;2022-08-21T12:33:05;29.93;47.28
69546;SHT31;56766;52.260;20.746;2022-08-21T12:35:47;30.17;46.05
69546;SHT31;56766;52.260;20.746;2022-08-21T12:38:32;30.28;45.84
69546;SHT31;56766;52.260;20.746;2022-08-21T12:41:47;30.40;46.48
69546;SHT31;56766;52.260;20.746;2022-08-21T12:44:33;30.63;47.64
69546;SHT31;56766;52.260;20.746;2022-08-21T12:47:29;30.91;46.41
69546;SHT31;56766;52.260;20.746;2022-08-21T12:50:17;31.02;45.98
69546;SHT31;56766;52.260;20.746;2022-08-21T12:52:59;31.01;46.10
69546;SHT31;56766;52.260;20.746;2022-08-21T12:55:33;30.75;45.79
69546;SHT31;56766;52.260;20.746;2022-08-21T12:58:07;30.41;46.56
69546;SHT31;56766;52.260;20.746;2022-08-21T13:00:54;30.11;46.58
69546;SHT31;56766;52.260;20.746;2022-08-21T13:03:25;29.89;47.45
69546;SHT31;56766;52.260;20.746;2022-08-21T13:05:53;29.80;47.77
69546;SHT31;56766;52.260;20.746;2022-08-21T13:08:23;29.67;47.88
69546;SHT31;56766;52.260;20.746;2022-08-21T13:10:59;29.49;48.59
69546;SHT31;56766;52.260;20.746;2022-08-21T13:13:30;29.39;48.85
69546;SHT31;56766;52.260;20.746;2022-08-21T13:16:04;29.35;49.20
69546;SHT31;56766;52.260;20.746;2022-08-21T13:18:36;29.30;49.19
69546;SHT31;56766;52.260;20.746;2022-08-21T13:21:18;29.16;49.83
69546;SHT31;56766;52.260;20.746;2022-08-21T13:23:44;29.05;50.07
69546;SHT31;56766;52.260;20.746;2022-08-21T13:26:17;28.95;50.64
69546;SHT31;56766;52.260;20.746;2022-08-21T13:28:49;28.94;51.53
69546;SHT31;56766;52.260;20.746;2022-08-21T13:31:29;28.90;50.45
69546;SHT31;56766;52.260;20.746;2022-08-21T13:33:57;28.87;50.24
69546;SHT31;56766;52.260;20.746;2022-08-21T13:36:30;29.00;49.73
69546;SHT31;56766;52.260;20.746;2022-08-21T13:39:03;29.17;50.01
69546;SHT31;56766;52.260;20.746;2022-08-21T13:41:36;29.38;49.52
69546;SHT31;56766;52.260;20.746;2022-08-21T13:44:19;29.49;49.16
69546;SHT31;56766;52.260;20.746;2022-08-21T13:46:53;29.54;48.09
69546;SHT31;56766;52.260;20.746;2022-08-21T13:49:29;29.53;47.99
69546;SHT31;56766;52.260;20.746;2022-08-21T13:51:58;29.55;49.05
69546;SHT31;56766;52.260;20.746;2022-08-21T13:54:39;29.67;49.04
69546;SHT31;56766;52.260;20.746;2022-08-21T13:57:28;29.83;48.82
69546;SHT31;56766;52.260;20.746;2022-08-21T14:00:32;29.95;48.31
69546;SHT31;56766;52.260;20.746;2022-08-21T14:03:08;29.84;48.33
69546;SHT31;56766;52.260;20.746;2022-08-21T14:05:45;29.74;48.48
69546;SHT31;56766;52.260;20.746;2022-08-21T14:10:58;29.77;48.58
69546;SHT31;56766;52.260;20.746;2022-08-21T14:13:47;29.84;47.77
69546;SHT31;56766;52.260;20.746;2022-08-21T14:16:21;29.90;47.63
69546;SHT31;56766;52.260;20.746;2022-08-21T14:21:32;29.90;47.30
69546;SHT31;56766;52.260;20.746;2022-08-21T14:26:44;29.62;47.82
69546;SHT31;56766;52.260;20.746;2022-08-21T14:29:18;29.43;47.96
69546;SHT31;56766;52.260;20.746;2022-08-21T14:31:56;29.29;48.09
69546;SHT31;56766;52.260;20.746;2022-08-21T14:34:28;29.15;48.70
69546;SHT31;56766;52.260;20.746;2022-08-21T14:36:55;29.16;49.40
69546;SHT31;56766;52.260;20.746;2022-08-21T14:39:22;29.04;49.54
69546;SHT31;56766;52.260;20.746;2022-08-21T14:41:52;28.90;49.80
69546;SHT31;56766;52.260;20.746;2022-08-21T14:44:20;28.75;49.92
69546;SHT31;56766;52.260;20.746;2022-08-21T14:46:46;28.59;50.46
69546;SHT31;56766;52.260;20.746;2022-08-21T14:49:13;28.44;50.57
69546;SHT31;56766;52.260;20.746;2022-08-21T14:51:40;28.34;51.29
69546;SHT31;56766;52.260;20.746;2022-08-21T14:54:07;28.26;51.46
69546;SHT31;56766;52.260;20.746;2022-08-21T14:56:34;28.23;51.71
69546;SHT31;56766;52.260;20.746;2022-08-21T14:59:06;28.24;51.94
69546;SHT31;56766;52.260;20.746;2022-08-21T15:01:37;28.23;52.06
69546;SHT31;56766;52.260;20.746;2022-08-21T15:04:05;28.21;52.16
69546;SHT31;56766;52.260;20.746;2022-08-21T15:06:31;28.21;52.36
69546;SHT31;56766;52.260;20.746;2022-08-21T15:08:58;28.23;52.69
69546;SHT31;56766;52.260;20.746;2022-08-21T15:11:25;28.23;52.17
69546;SHT31;56766;52.260;20.746;2022-08-21T15:13:56;28.18;52.04
69546;SHT31;56766;52.260;20.746;2022-08-21T15:16:28;28.17;51.84
69546;SHT31;56766;52.260;20.746;2022-08-21T15:18:59;28.17;51.71
69546;SHT31;56766;52.260;20.746;2022-08-21T15:21:25;28.19;51.60
69546;SHT31;56766;52.260;20.746;2022-08-21T15:23:52;28.15;51.68
69546;SHT31;56766;52.260;20.746;2022-08-21T15:26:22;28.11;51.76
69546;SHT31;56766;52.260;20.746;2022-08-21T15:28:49;28.10;51.76
69546;SHT31;56766;52.260;20.746;2022-08-21T15:31:16;28.04;51.70
69546;SHT31;56766;52.260;20.746;2022-08-21T15:33:43;28.00;51.74
69546;SHT31;56766;52.260;20.746;2022-08-21T15:36:10;27.98;52.07
69546;SHT31;56766;52.260;20.746;2022-08-21T15:38:36;27.94;51.71
69546;SHT31;56766;52.260;20.746;2022-08-21T15:41:05;27.91;51.61
69546;SHT31;56766;52.260;20.746;2022-08-21T15:43:46;27.86;51.60
69546;SHT31;56766;52.260;20.746;2022-08-21T15:46:19;27.81;51.90
69546;SHT31;56766;52.260;20.746;2022-08-21T15:48:47;27.80;51.99
69546;SHT31;56766;52.260;20.746;2022-08-21T15:51:15;27.74;51.60
69546;SHT31;56766;52.260;20.746;2022-08-21T15:53:44;27.70;51.88
69546;SHT31;56766;52.260;20.746;2022-08-21T15:56:25;27.70;52.19
69546;SHT31;56766;52.260;20.746;2022-08-21T15:59:01;27.64;52.16
69546;SHT31;56766;52.260;20.746;2022-08-21T16:01:35;27.56;51.83
69546;SHT31;56766;52.260;20.746;2022-08-21T16:04:04;27.50;51.95
69546;SHT31;56766;52.260;20.746;2022-08-21T16:06:33;27.39;52.19
69546;SHT31;56766;52.260;20.746;2022-08-21T16:09:00;27.34;52.59
69546;SHT31;56766;52.260;20.746;2022-08-21T16:11:27;27.30;52.46
69546;SHT31;56766;52.260;20.746;2022-08-21T16:13:55;27.26;52.69
69546;SHT31;56766;52.260;20.746;2022-08-21T16:16:23;27.20;52.97
69546;SHT31;56766;52.260;20.746;2022-08-21T16:18:52;27.12;53.18
69546;SHT31;56766;52.260;20.746;2022-08-21T16:21:19;27.04;53.21
69546;SHT31;56766;52.260;20.746;2022-08-21T16:23:46;26.98;53.48
69546;SHT31;56766;52.260;20.746;2022-08-21T16:26:13;26.89;53.71
69546;SHT31;56766;52.260;20.746;2022-08-21T16:28:44;26.84;53.89
69546;SHT31;56766;52.260;20.746;2022-08-21T16:31:13;26.81;54.04
69546;SHT31;56766;52.260;20.746;2022-08-21T16:33:43;26.79;54.12
69546;SHT31;56766;52.260;20.746;2022-08-21T16:36:15;26.75;54.38
69546;SHT31;56766;52.260;20.746;2022-08-21T16:38:41;26.70;54.60
69546;SHT31;56766;52.260;20.746;2022-08-21T16:41:15;26.61;54.96
69546;SHT31;56766;52.260;20.746;2022-08-21T16:43:45;26.52;55.28
69546;SHT31;56766;52.260;20.746;2022-08-21T16:46:16;26.45;55.72
69546;SHT31;56766;52.260;20.746;2022-08-21T16:48:44;26.38;55.85
69546;SHT31;56766;52.260;20.746;2022-08-21T16:51:13;26.30;56.00
69546;SHT31;56766;52.260;20.746;2022-08-21T16:53:41;26.20;56.13
69546;SHT31;56766;52.260;20.746;2022-08-21T16:56:11;26.13;56.27
69546;SHT31;56766;52.260;20.746;2022-08-21T16:58:44;26.03;56.60
69546;SHT31;56766;52.260;20.746;2022-08-21T17:01:19;25.93;56.78
69546;SHT31;56766;52.260;20.746;2022-08-21T17:03:50;25.87;57.00
69546;SHT31;56766;52.260;20.746;2022-08-21T17:06:17;25.79;57.54